createdAt,value
2023-05-08T00:01:54.698Z,99.90
2023-05-08T00:04:57.737Z,99.90
2023-05-08T00:08:02.255Z,99.90
2023-05-08T00:11:05.220Z,99.90
2023-05-08T00:14:08.233Z,99.90
2023-05-08T00:17:11.359Z,99.90
2023-05-08T00:20:14.715Z,99.90
2023-05-08T00:23:19.116Z,99.90
2023-05-08T00:26:22.069Z,99.90
2023-05-08T00:29:25.054Z,99.90
2023-05-08T00:32:28.928Z,99.90
2023-05-08T00:35:31.924Z,99.90
2023-05-08T00:38:37.453Z,99.90
2023-05-08T00:41:40.339Z,99.90
2023-05-08T00:44:43.215Z,99.90
2023-05-08T00:47:46.350Z,99.90
2023-05-08T00:50:49.579Z,99.90
2023-05-08T00:53:54.358Z,99.90
2023-05-08T00:56:57.590Z,99.90
2023-05-08T01:00:01.956Z,99.90
2023-05-08T01:03:06.058Z,99.90
2023-05-08T01:06:09.442Z,99.90
2023-05-08T01:09:13.661Z,99.90
2023-05-08T01:12:23.766Z,99.90
2023-05-08T01:15:31.237Z,99.90
2023-05-08T01:18:39.233Z,99.90
2023-05-08T01:21:50.392Z,99.90
2023-05-08T01:25:17.654Z,99.90
2023-05-08T01:28:39.869Z,99.90
2023-05-08T01:31:54.989Z,99.90
2023-05-08T01:35:07.882Z,99.90
2023-05-08T01:38:19.088Z,99.90
2023-05-08T01:41:28.195Z,99.90
2023-05-08T01:44:38.297Z,99.90
2023-05-08T01:47:43.271Z,99.90
2023-05-08T01:50:53.266Z,99.90
2023-05-08T01:54:01.830Z,99.90
2023-05-08T01:57:06.192Z,99.90
2023-05-08T02:00:10.440Z,99.90
2023-05-08T02:03:15.976Z,99.90
2023-05-08T02:06:23.218Z,99.90
2023-05-08T02:09:29.680Z,99.90
2023-05-08T02:12:33.672Z,99.90
2023-05-08T02:15:38.708Z,99.90
2023-05-08T02:18:47.970Z,99.90
2023-05-08T02:21:53.028Z,99.90
2023-05-08T02:24:58.549Z,99.90
2023-05-08T02:28:02.444Z,99.90
2023-05-08T02:31:06.822Z,99.90
2023-05-08T02:34:11.571Z,99.90
2023-05-08T02:37:17.695Z,99.90
2023-05-08T02:40:23.403Z,99.90
2023-05-08T02:43:26.388Z,99.90
2023-05-08T02:46:36.386Z,99.90
2023-05-08T02:49:44.904Z,99.90
2023-05-08T02:52:52.615Z,99.90
2023-05-08T02:56:02.299Z,99.90
2023-05-08T02:59:16.709Z,99.90
2023-05-08T03:02:28.350Z,99.90
2023-05-08T03:05:33.731Z,99.90
2023-05-08T03:08:38.957Z,99.90
2023-05-08T03:11:43.262Z,99.90
2023-05-08T03:14:49.748Z,99.90
2023-05-08T03:17:55.989Z,99.90
2023-05-08T03:21:01.369Z,99.90
2023-05-08T03:24:07.930Z,99.90
2023-05-08T03:27:11.388Z,99.90
2023-05-08T03:30:15.928Z,99.90
2023-05-08T03:33:20.227Z,99.90
2023-05-08T03:36:26.858Z,99.90
2023-05-08T03:39:31.163Z,99.90
2023-05-08T03:42:34.281Z,99.90
2023-05-08T03:45:38.247Z,99.90
2023-05-08T03:48:42.274Z,99.90
2023-05-08T03:51:46.298Z,99.90
2023-05-08T03:54:50.484Z,99.90
2023-05-08T03:58:00.930Z,99.90
2023-05-08T04:01:08.865Z,99.90
2023-05-08T04:04:18.427Z,99.90
2023-05-08T04:07:28.953Z,99.90
2023-05-08T04:10:38.669Z,99.90
2023-05-08T04:13:48.649Z,99.90
2023-05-08T04:16:57.978Z,99.90
2023-05-08T04:20:05.054Z,99.90
2023-05-08T04:23:09.887Z,99.90
2023-05-08T04:26:16.550Z,99.90
2023-05-08T04:29:20.522Z,99.90
2023-05-08T04:32:24.384Z,99.90
2023-05-08T04:35:27.577Z,99.90
2023-05-08T04:38:30.855Z,99.90
2023-05-08T04:41:35.492Z,99.90
2023-05-08T04:44:38.449Z,99.90
2023-05-08T04:47:41.359Z,99.90
2023-05-08T04:50:44.278Z,99.90
2023-05-08T04:53:47.167Z,99.90
2023-05-08T04:56:51.408Z,99.90
2023-05-08T04:59:54.281Z,99.90
2023-05-08T05:02:57.218Z,99.90
2023-05-08T05:06:00.680Z,99.90
2023-05-08T05:09:03.621Z,99.90
2023-05-08T05:12:08.264Z,99.90
2023-05-08T05:15:12.446Z,99.90
2023-05-08T05:18:15.569Z,99.90
2023-05-08T05:21:18.451Z,99.90
2023-05-08T05:24:21.316Z,99.90
2023-05-08T05:27:25.592Z,99.90
2023-05-08T05:30:28.553Z,99.90
2023-05-08T05:33:31.417Z,99.90
2023-05-08T05:36:34.729Z,99.90
2023-05-08T05:39:37.896Z,99.90
2023-05-08T05:42:42.097Z,99.90
2023-05-08T05:45:45.195Z,99.90
2023-05-08T05:48:48.067Z,99.90
2023-05-08T05:51:50.931Z,99.90
2023-05-08T05:54:53.757Z,99.90
2023-05-08T05:57:57.937Z,99.90
2023-05-08T06:01:02.083Z,99.90
2023-05-08T06:04:05.431Z,99.90
2023-05-08T06:07:08.414Z,99.90
2023-05-08T06:10:12.026Z,99.90
2023-05-08T06:13:16.521Z,99.90
2023-05-08T06:16:20.708Z,99.90
2023-05-08T06:19:24.472Z,99.90
2023-05-08T06:22:27.325Z,99.90
2023-05-08T06:25:31.037Z,99.90
2023-05-08T06:28:35.460Z,99.90
2023-05-08T06:31:38.362Z,99.90
2023-05-08T06:34:41.195Z,99.90
2023-05-08T06:37:44.060Z,99.90
2023-05-08T06:40:47.378Z,99.90
2023-05-08T06:43:51.730Z,99.90
2023-05-08T06:46:55.317Z,99.90
2023-05-08T06:49:58.424Z,99.90
2023-05-08T06:53:01.316Z,99.90
2023-05-08T06:56:04.181Z,99.90
2023-05-08T06:59:09.246Z,99.90
2023-05-08T07:02:12.450Z,99.90
2023-05-08T07:05:15.679Z,99.90
2023-05-08T07:08:18.778Z,99.90
2023-05-08T07:11:22.138Z,99.90
2023-05-08T07:14:27.408Z,99.90
2023-05-08T07:17:30.863Z,99.90
2023-05-08T07:20:33.724Z,99.90
2023-05-08T07:23:36.589Z,99.90
2023-05-08T07:26:39.449Z,99.90
2023-05-08T07:29:43.661Z,99.90
2023-05-08T07:32:46.637Z,99.90
2023-05-08T07:35:49.717Z,99.90
2023-05-08T07:38:52.728Z,99.90
2023-05-08T07:41:55.628Z,99.90
2023-05-08T07:44:59.856Z,99.90
2023-05-08T07:48:02.822Z,99.90
2023-05-08T07:51:06.294Z,99.90
2023-05-08T07:54:09.201Z,99.90
2023-05-08T07:57:12.352Z,99.90
2023-05-08T08:00:17.855Z,99.90
2023-05-08T08:03:21.129Z,99.90
2023-05-08T08:06:24.195Z,99.90
2023-05-08T08:09:27.146Z,99.90
2023-05-08T08:12:30.990Z,99.90
2023-05-08T08:15:35.389Z,99.90
2023-05-08T08:18:38.401Z,99.90
2023-05-08T08:21:44.367Z,99.90
2023-05-08T08:24:47.267Z,99.90
2023-05-08T08:27:50.222Z,99.90
2023-05-08T08:30:54.625Z,99.90
2023-05-08T08:33:57.591Z,99.90
2023-05-08T08:37:00.542Z,99.90
2023-05-08T08:40:03.503Z,99.90
2023-05-08T08:46:15.454Z,99.90
2023-05-08T08:49:20.099Z,99.90
2023-05-08T08:52:31.715Z,99.90
2023-05-08T08:55:37.799Z,99.90
2023-05-08T08:58:51.082Z,99.40
2023-05-08T09:01:59.754Z,99.70
2023-05-08T09:05:03.934Z,99.90
2023-05-08T09:08:07.809Z,99.90
2023-05-08T09:11:10.692Z,99.30
2023-05-08T09:14:13.991Z,98.70
2023-05-08T09:17:18.495Z,98.90
2023-05-08T09:20:22.125Z,99.40
2023-05-08T09:23:25.023Z,98.50
2023-05-08T09:26:33.694Z,98.20
2023-05-08T09:29:36.542Z,98.40
2023-05-08T09:32:42.846Z,98.60
2023-05-08T09:35:45.724Z,99.00
2023-05-08T09:38:48.527Z,97.20
2023-05-08T09:42:01.768Z,97.70
2023-05-08T09:45:05.953Z,97.50
2023-05-08T09:48:11.770Z,97.60
2023-05-08T09:51:14.647Z,98.90
2023-05-08T09:54:19.286Z,97.50
2023-05-08T09:57:22.083Z,97.90
2023-05-08T10:00:26.003Z,97.90
2023-05-08T10:03:48.074Z,97.10
2023-05-08T10:06:59.265Z,96.00
2023-05-08T10:13:07.650Z,96.20
2023-05-08T10:19:19.317Z,96.30
2023-05-08T10:22:26.010Z,96.90
2023-05-08T10:25:33.339Z,96.50
2023-05-08T10:28:43.897Z,97.40
2023-05-08T10:31:49.960Z,96.60
2023-05-08T10:34:59.837Z,96.50
2023-05-08T10:41:07.579Z,96.20
2023-05-08T10:44:10.895Z,96.10
2023-05-08T10:47:22.329Z,96.50
2023-05-08T10:59:50.534Z,94.90
2023-05-08T11:02:53.581Z,95.50
2023-05-08T11:05:59.107Z,95.50
2023-05-08T11:15:12.333Z,94.30
2023-05-08T11:18:18.232Z,94.60
2023-05-08T11:24:35.997Z,94.90
2023-05-08T11:27:42.474Z,95.20
2023-05-08T11:30:46.511Z,93.90
2023-05-08T11:33:49.608Z,94.10
2023-05-08T11:37:03.553Z,93.60
2023-05-08T12:36:27.174Z,92.60
2023-05-08T12:39:36.147Z,92.70
2023-05-08T12:58:33.213Z,92.50
2023-05-08T13:01:36.187Z,93.10
2023-05-08T13:04:39.284Z,94.30
2023-05-08T13:07:42.312Z,91.80
2023-05-08T13:10:48.410Z,92.90
2023-05-08T13:13:51.352Z,94.00
2023-05-08T13:16:54.392Z,95.20
2023-05-08T13:19:57.360Z,93.90
2023-05-08T13:23:00.365Z,93.90
2023-05-08T13:26:05.112Z,93.40
2023-05-08T13:29:08.006Z,94.30
2023-05-08T13:32:10.991Z,94.20
2023-05-08T13:35:13.940Z,93.60
2023-05-08T13:38:16.818Z,92.90
2023-05-08T13:41:21.103Z,93.20
2023-05-08T13:44:23.943Z,93.10
2023-05-08T13:47:26.889Z,92.80
2023-05-08T13:50:29.939Z,92.80
2023-05-08T13:53:32.990Z,93.00
2023-05-08T13:56:37.233Z,92.40
2023-05-08T13:59:40.622Z,91.40
2023-05-08T14:02:43.617Z,91.00
2023-05-08T14:05:46.677Z,92.20
2023-05-08T14:08:51.464Z,92.30
2023-05-08T14:11:57.127Z,92.00
2023-05-08T14:15:00.452Z,91.70
2023-05-08T14:18:03.358Z,90.90
2023-05-08T17:27:58.469Z,95.40
2023-05-08T17:31:02.669Z,96.30
2023-05-08T17:34:05.843Z,96.70
2023-05-08T17:37:08.782Z,96.90
2023-05-08T17:40:12.716Z,96.70
2023-05-08T17:43:15.864Z,96.50
2023-05-08T17:46:20.224Z,97.50
2023-05-08T17:49:23.362Z,96.30
2023-05-08T17:52:26.398Z,97.30
2023-05-08T17:55:31.324Z,95.50
2023-05-08T17:58:34.216Z,97.30
2023-05-08T18:01:38.587Z,97.40
2023-05-08T18:04:41.666Z,97.60
2023-05-08T18:07:44.519Z,96.30
2023-05-08T18:10:47.768Z,96.20
2023-05-08T18:13:51.408Z,95.90
2023-05-08T18:16:55.683Z,95.90
2023-05-08T18:19:58.550Z,95.90
2023-05-08T18:23:01.821Z,96.30
2023-05-08T18:26:04.908Z,97.20
2023-05-08T18:29:07.873Z,96.80
2023-05-08T18:32:12.291Z,96.60
2023-05-08T18:35:15.259Z,97.20
2023-05-08T18:38:18.560Z,96.30
2023-05-08T18:41:21.460Z,96.70
2023-05-08T18:44:24.673Z,96.10
2023-05-08T18:47:28.971Z,95.20
2023-05-08T18:50:31.836Z,95.20
2023-05-08T18:53:38.186Z,95.60
2023-05-08T18:56:41.372Z,95.30
2023-05-08T18:59:44.427Z,95.60
2023-05-08T19:02:48.746Z,96.40
2023-05-08T19:05:52.181Z,96.80
2023-05-08T19:08:55.067Z,97.00
2023-05-08T19:11:57.906Z,97.00
2023-05-08T19:15:00.759Z,98.00
2023-05-08T19:18:05.518Z,98.10
2023-05-08T19:21:08.731Z,98.60
2023-05-08T19:24:11.610Z,99.00
2023-05-08T19:27:14.462Z,99.70
2023-05-08T19:30:17.462Z,99.90
2023-05-08T19:33:21.651Z,99.90
2023-05-08T19:36:24.531Z,99.90
2023-05-08T19:39:27.401Z,99.90
2023-05-08T19:42:30.974Z,99.90
2023-05-08T19:45:33.904Z,98.80
2023-05-08T19:48:38.224Z,98.80
2023-05-08T19:51:41.154Z,98.70
2023-05-08T19:54:45.617Z,98.50
2023-05-08T19:57:48.936Z,98.80
2023-05-08T20:00:52.044Z,98.40
2023-05-08T20:03:59.772Z,98.70
2023-05-08T20:07:03.961Z,98.50
2023-05-08T20:10:08.397Z,98.90
2023-05-08T20:13:11.464Z,98.70
2023-05-08T20:16:14.505Z,99.20
2023-05-08T20:19:18.761Z,99.90
2023-05-08T20:22:22.407Z,99.10
2023-05-08T20:25:25.330Z,99.30
2023-05-08T20:28:28.334Z,99.60
2023-05-08T20:31:31.295Z,99.70
2023-05-08T20:34:36.313Z,99.90
2023-05-08T20:37:44.393Z,99.90
2023-05-08T20:40:47.331Z,99.90
2023-05-08T20:43:50.257Z,99.90
2023-05-08T20:46:53.522Z,99.60
2023-05-08T20:49:57.770Z,99.40
2023-05-08T20:53:00.654Z,99.90
2023-05-08T20:56:04.327Z,99.90
2023-05-08T20:59:07.241Z,99.90
2023-05-08T21:02:10.100Z,99.90
2023-05-08T21:05:14.581Z,99.90
2023-05-08T21:08:17.671Z,99.90
2023-05-08T21:11:21.099Z,99.90
2023-05-08T21:14:24.031Z,99.90
2023-05-08T21:17:27.072Z,99.90
2023-05-08T21:20:33.141Z,99.90
2023-05-08T21:23:36.020Z,99.90
2023-05-08T21:26:38.872Z,99.90
2023-05-08T21:29:41.720Z,99.90
2023-05-08T21:32:46.131Z,99.90
2023-05-08T21:35:50.364Z,99.90
2023-05-08T21:38:53.231Z,99.90
2023-05-08T21:41:56.074Z,99.90
2023-05-08T21:44:59.218Z,99.90
2023-05-08T21:48:03.818Z,99.90
2023-05-08T21:51:08.261Z,99.90
2023-05-08T21:54:11.153Z,99.90
2023-05-08T21:57:14.007Z,99.90
2023-05-08T22:00:17.624Z,99.90
2023-05-08T22:03:20.577Z,99.90
2023-05-08T22:06:24.837Z,99.90
2023-05-08T22:09:27.918Z,99.90
2023-05-08T22:12:30.734Z,99.90
2023-05-08T22:15:33.814Z,99.90
2023-05-08T22:18:36.825Z,99.90
2023-05-08T22:21:41.861Z,99.90
2023-05-08T22:24:44.696Z,99.90
2023-05-08T22:27:47.549Z,99.90
2023-05-08T22:30:50.383Z,99.90
2023-05-08T22:33:53.234Z,99.90
2023-05-08T22:36:57.418Z,99.90
2023-05-08T22:40:00.335Z,99.90
2023-05-08T22:43:03.497Z,99.90
2023-05-08T22:46:07.451Z,99.90
2023-05-08T22:49:10.500Z,99.90
2023-05-08T22:52:14.693Z,99.90
2023-05-08T22:55:18.421Z,99.90
2023-05-08T22:58:21.313Z,99.90
2023-05-08T23:01:24.206Z,99.90
2023-05-08T23:04:27.137Z,99.90
2023-05-08T23:07:31.328Z,99.90
2023-05-08T23:10:34.194Z,99.90
2023-05-08T23:13:37.537Z,99.90
2023-05-08T23:16:40.400Z,99.90
2023-05-08T23:19:43.416Z,99.90
2023-05-08T23:22:47.577Z,99.90
2023-05-08T23:25:50.400Z,99.90
2023-05-08T23:28:53.330Z,99.90
2023-05-08T23:31:56.210Z,99.90
2023-05-08T23:34:59.133Z,99.90
2023-05-08T23:38:03.298Z,99.90
2023-05-08T23:41:06.179Z,99.90
2023-05-08T23:44:09.476Z,99.90
2023-05-08T23:47:12.412Z,99.90
2023-05-08T23:50:15.289Z,99.90
2023-05-08T23:53:19.471Z,99.90
2023-05-08T23:56:23.118Z,99.90
2023-05-08T23:59:26.136Z,99.90
